createdAt,value
2022-10-17T00:00:48.599Z,3.37
2022-10-17T00:03:15.943Z,3.00
2022-10-17T00:05:45.709Z,3.50
2022-10-17T00:08:13.928Z,3.30
2022-10-17T00:10:41.565Z,3.20
2022-10-17T00:13:09.619Z,3.47
2022-10-17T00:15:36.491Z,3.60
2022-10-17T00:18:03.862Z,3.40
2022-10-17T00:20:32.692Z,3.47
2022-10-17T00:22:59.509Z,4.03
2022-10-17T00:25:26.353Z,2.90
2022-10-17T00:27:53.338Z,3.70
2022-10-17T00:30:20.100Z,3.50
2022-10-17T00:32:46.958Z,3.23
2022-10-17T00:35:13.653Z,3.20
2022-10-17T00:37:40.424Z,3.23
2022-10-17T00:40:08.181Z,2.77
2022-10-17T00:42:35.700Z,3.07
2022-10-17T00:45:13.938Z,3.30
2022-10-17T00:47:42.058Z,2.77
2022-10-17T00:50:09.758Z,2.90
2022-10-17T00:52:36.667Z,3.43
2022-10-17T00:55:14.965Z,3.10
2022-10-17T00:57:42.885Z,3.30
2022-10-17T01:00:10.910Z,4.00
2022-10-17T01:02:38.383Z,2.80
2022-10-17T01:05:06.911Z,3.70
2022-10-17T01:07:37.143Z,2.77
2022-10-17T01:10:05.736Z,3.23
2022-10-17T01:12:48.159Z,3.20
2022-10-17T01:15:33.610Z,2.60
2022-10-17T01:18:20.305Z,2.60
2022-10-17T01:21:21.175Z,2.67
2022-10-17T01:24:21.627Z,2.73
2022-10-17T01:26:48.303Z,2.80
2022-10-17T01:29:54.059Z,2.83
2022-10-17T01:32:20.832Z,2.27
2022-10-17T01:35:06.942Z,3.00
2022-10-17T01:40:54.014Z,2.97
2022-10-17T01:45:53.354Z,2.93
2022-10-17T01:48:23.789Z,3.70
2022-10-17T01:51:35.357Z,3.10
2022-10-17T01:54:04.649Z,3.10
2022-10-17T01:56:34.205Z,3.23
2022-10-17T01:59:06.947Z,2.87
2022-10-17T02:01:37.074Z,3.83
2022-10-17T02:04:05.968Z,2.60
2022-10-17T02:06:38.959Z,3.10
2022-10-17T02:09:21.875Z,3.60
2022-10-17T02:11:52.883Z,3.00
2022-10-17T02:14:45.337Z,3.97
2022-10-17T02:17:36.763Z,2.90
2022-10-17T02:20:13.015Z,3.37
2022-10-17T02:22:56.703Z,3.10
2022-10-17T02:25:42.545Z,3.20
2022-10-17T02:28:21.308Z,3.33
2022-10-17T02:31:26.301Z,3.33
2022-10-17T02:34:01.816Z,3.07
2022-10-17T02:36:43.558Z,2.97
2022-10-17T02:39:12.508Z,3.03
2022-10-17T02:41:40.989Z,2.67
2022-10-17T02:44:09.593Z,3.20
2022-10-17T02:46:40.105Z,3.30
2022-10-17T02:49:19.849Z,2.90
2022-10-17T02:52:10.999Z,3.00
2022-10-17T02:54:52.718Z,2.80
2022-10-17T02:57:28.746Z,3.13
2022-10-17T02:59:59.083Z,2.87
2022-10-17T03:02:27.482Z,3.10
2022-10-17T03:04:54.832Z,2.80
2022-10-17T03:07:21.643Z,3.00
2022-10-17T03:09:48.609Z,2.83
2022-10-17T03:12:15.372Z,3.70
2022-10-17T03:14:42.181Z,3.03
2022-10-17T03:17:09.049Z,2.97
2022-10-17T03:19:35.871Z,3.43
2022-10-17T03:22:02.587Z,3.73
2022-10-17T03:24:29.342Z,2.87
2022-10-17T03:26:56.037Z,3.10
2022-10-17T03:29:22.836Z,2.80
2022-10-17T03:31:49.643Z,2.90
2022-10-17T03:34:18.793Z,2.90
2022-10-17T03:36:45.877Z,2.80
2022-10-17T03:39:12.988Z,3.33
2022-10-17T03:41:41.465Z,3.00
2022-10-17T03:44:08.432Z,3.03
2022-10-17T03:46:35.127Z,2.77
2022-10-17T03:49:01.969Z,3.07
2022-10-17T03:51:28.720Z,3.90
2022-10-17T03:53:55.562Z,3.33
2022-10-17T03:56:24.478Z,3.00
2022-10-17T03:58:51.601Z,3.20
2022-10-17T04:01:19.656Z,3.77
2022-10-17T04:03:52.225Z,3.80
2022-10-17T04:06:19.436Z,3.30
2022-10-17T04:08:46.682Z,2.90
2022-10-17T04:11:20.789Z,3.80
2022-10-17T04:13:48.147Z,3.10
2022-10-17T04:16:17.298Z,3.30
2022-10-17T04:18:44.410Z,3.23
2022-10-17T04:21:11.864Z,2.87
2022-10-17T04:23:39.343Z,2.90
2022-10-17T04:26:07.169Z,3.30
2022-10-17T04:28:34.646Z,4.40
2022-10-17T04:31:04.784Z,5.70
2022-10-17T04:33:32.877Z,6.00
2022-10-17T04:36:01.274Z,7.93
2022-10-17T04:38:29.518Z,9.70
2022-10-17T04:41:03.225Z,8.77
2022-10-17T04:43:34.725Z,9.10
2022-10-17T04:46:03.310Z,9.13
2022-10-17T04:48:31.028Z,5.43
2022-10-17T04:51:03.861Z,3.70
2022-10-17T04:53:35.817Z,3.17
2022-10-17T04:56:12.500Z,2.90
2022-10-17T04:58:39.854Z,3.30
2022-10-17T05:01:08.577Z,2.90
2022-10-17T05:03:36.178Z,3.03
2022-10-17T05:06:29.364Z,2.93
2022-10-17T05:08:57.752Z,3.60
2022-10-17T05:11:27.602Z,3.27
2022-10-17T05:14:00.051Z,4.10
2022-10-17T05:16:28.561Z,4.03
2022-10-17T05:18:57.430Z,4.07
2022-10-17T05:21:26.313Z,3.83
2022-10-17T05:23:53.504Z,3.40
2022-10-17T05:26:21.807Z,3.73
2022-10-17T05:28:48.623Z,3.77
2022-10-17T05:31:15.813Z,4.37
2022-10-17T05:33:42.650Z,3.33
2022-10-17T05:36:09.970Z,3.70
2022-10-17T05:38:36.733Z,4.13
2022-10-17T05:41:05.420Z,3.67
2022-10-17T05:43:33.595Z,3.27
2022-10-17T05:46:04.058Z,3.50
2022-10-17T05:48:30.858Z,3.20
2022-10-17T05:51:03.272Z,2.67
2022-10-17T05:53:34.816Z,3.23
2022-10-17T05:56:04.091Z,3.93
2022-10-17T05:59:01.312Z,3.17
2022-10-17T06:01:18.921Z,3.10
2022-10-17T06:03:45.731Z,3.13
2022-10-17T06:06:14.123Z,3.10
2022-10-17T06:08:41.278Z,3.10
2022-10-17T06:11:10.210Z,3.07
2022-10-17T06:13:38.463Z,3.03
2022-10-17T06:16:06.252Z,3.20
2022-10-17T06:18:33.510Z,3.50
2022-10-17T06:21:10.690Z,3.60
2022-10-17T06:23:38.103Z,3.40
2022-10-17T06:26:06.260Z,3.73
2022-10-17T06:28:33.837Z,3.70
2022-10-17T06:31:03.944Z,3.40
2022-10-17T06:33:30.771Z,5.37
2022-10-17T06:35:57.916Z,4.80
2022-10-17T06:38:27.619Z,4.50
2022-10-17T06:40:54.625Z,3.80
2022-10-17T06:43:26.935Z,4.27
2022-10-17T06:45:54.807Z,3.53
2022-10-17T06:48:21.534Z,3.33
2022-10-17T06:50:48.361Z,4.13
2022-10-17T06:53:15.210Z,4.07
2022-10-17T06:55:43.068Z,3.63
2022-10-17T06:58:09.939Z,4.43
2022-10-17T07:00:36.868Z,3.43
2022-10-17T07:03:04.111Z,3.50
2022-10-17T07:05:30.956Z,3.40
2022-10-17T07:07:57.836Z,3.63
2022-10-17T07:10:24.637Z,3.20
2022-10-17T07:12:51.476Z,3.90
2022-10-17T07:15:18.375Z,5.47
2022-10-17T07:17:50.397Z,3.97
2022-10-17T07:20:17.269Z,4.77
2022-10-17T07:22:44.033Z,8.90
2022-10-17T07:25:10.841Z,7.13
2022-10-17T07:27:38.698Z,5.57
2022-10-17T07:30:06.361Z,4.53
2022-10-17T07:32:33.485Z,4.10
2022-10-17T07:35:00.270Z,4.67
2022-10-17T07:37:27.332Z,6.13
2022-10-17T07:39:55.240Z,5.67
2022-10-17T07:42:22.517Z,5.30
2022-10-17T07:44:49.295Z,5.80
2022-10-17T07:47:16.117Z,5.10
2022-10-17T07:49:44.425Z,4.50
2022-10-17T07:52:12.508Z,5.93
2022-10-17T07:54:39.535Z,4.77
2022-10-17T07:57:07.057Z,4.57
2022-10-17T07:59:34.901Z,4.77
2022-10-17T08:02:01.748Z,4.67
2022-10-17T08:04:29.183Z,3.97
2022-10-17T08:07:05.426Z,3.67
2022-10-17T08:09:38.800Z,2.90
2022-10-17T08:12:06.481Z,3.60
2022-10-17T08:14:33.480Z,3.37
2022-10-17T08:17:00.285Z,3.50
2022-10-17T08:19:27.167Z,3.60
2022-10-17T08:21:54.522Z,2.93
2022-10-17T08:24:21.464Z,3.50
2022-10-17T08:26:50.972Z,3.57
2022-10-17T08:29:19.278Z,3.00
2022-10-17T08:31:47.866Z,2.83
2022-10-17T08:34:16.303Z,3.30
2022-10-17T08:36:43.013Z,2.80
2022-10-17T08:39:09.792Z,3.10
2022-10-17T08:42:01.020Z,3.10
2022-10-17T08:44:45.326Z,3.30
2022-10-17T08:47:44.728Z,3.57
2022-10-17T08:50:24.172Z,3.50
2022-10-17T08:53:18.495Z,2.70
2022-10-17T08:55:50.153Z,3.57
2022-10-17T08:58:31.233Z,3.47
2022-10-17T09:01:13.101Z,6.13
2022-10-17T09:04:17.049Z,6.63
2022-10-17T09:06:57.739Z,4.30
2022-10-17T09:09:38.624Z,4.50
2022-10-17T09:12:30.236Z,3.73
2022-10-17T09:15:24.451Z,5.10
2022-10-17T09:17:54.500Z,4.30
2022-10-17T09:20:28.251Z,3.63
2022-10-17T09:23:03.884Z,3.20
2022-10-17T09:25:38.672Z,3.10
2022-10-17T09:28:37.464Z,3.23
2022-10-17T09:31:20.287Z,3.20
2022-10-17T09:33:54.246Z,2.93
2022-10-17T09:36:27.420Z,3.10
2022-10-17T09:38:57.158Z,3.30
2022-10-17T09:41:46.904Z,3.20
2022-10-17T09:44:52.389Z,2.70
2022-10-17T09:47:47.567Z,2.83
2022-10-17T09:50:28.228Z,2.67
2022-10-17T09:52:57.595Z,2.50
2022-10-17T09:55:45.538Z,2.43
2022-10-17T09:58:12.796Z,2.33
2022-10-17T10:00:43.537Z,2.00
2022-10-17T10:03:11.721Z,1.80
2022-10-17T10:05:39.419Z,2.10
2022-10-17T10:08:13.039Z,2.10
2022-10-17T10:10:46.045Z,2.00
2022-10-17T10:13:15.980Z,2.20
2022-10-17T10:15:50.469Z,2.10
2022-10-17T10:18:27.337Z,1.67
2022-10-17T10:21:20.166Z,2.40
2022-10-17T10:24:13.750Z,2.00
2022-10-17T10:26:49.135Z,2.47
2022-10-17T10:29:49.861Z,2.00
2022-10-17T10:32:29.015Z,2.10
2022-10-17T10:35:03.961Z,1.97
2022-10-17T10:37:43.669Z,3.10
2022-10-17T10:40:18.954Z,1.70
2022-10-17T10:42:55.232Z,2.43
2022-10-17T10:45:47.928Z,2.20
2022-10-17T10:48:24.946Z,2.17
2022-10-17T10:51:02.482Z,1.90
2022-10-17T10:53:42.846Z,1.90
2022-10-17T10:56:23.093Z,2.03
2022-10-17T10:59:03.686Z,1.90
2022-10-17T11:01:53.065Z,1.97
2022-10-17T11:04:47.483Z,1.90
2022-10-17T11:07:22.522Z,1.73
2022-10-17T11:10:19.133Z,2.10
2022-10-17T11:12:59.680Z,2.17
2022-10-17T11:15:49.444Z,2.50
2022-10-17T11:18:25.602Z,2.10
2022-10-17T11:21:20.818Z,2.30
2022-10-17T11:24:09.104Z,2.60
2022-10-17T11:26:42.287Z,1.97
2022-10-17T11:29:12.472Z,2.20
2022-10-17T11:31:44.853Z,2.07
2022-10-17T11:34:26.229Z,2.60
2022-10-17T11:36:58.344Z,2.00
2022-10-17T11:39:31.711Z,1.80
2022-10-17T11:42:12.103Z,2.00
2022-10-17T11:44:40.999Z,2.00
2022-10-17T11:47:26.298Z,2.20
2022-10-17T11:53:04.816Z,2.23
2022-10-17T11:55:34.262Z,1.87
2022-10-17T11:58:32.686Z,1.60
2022-10-17T12:01:08.790Z,1.77
2022-10-17T12:03:57.467Z,1.77
2022-10-17T12:06:29.459Z,2.00
2022-10-17T12:09:08.473Z,1.50
2022-10-17T12:11:55.994Z,1.53
2022-10-17T12:14:35.059Z,1.43
2022-10-17T12:17:03.631Z,1.60
2022-10-17T12:19:35.883Z,1.60
2022-10-17T12:22:13.292Z,1.33
2022-10-17T12:24:42.130Z,1.40
2022-10-17T12:27:38.216Z,1.70
2022-10-17T12:30:19.084Z,2.00
2022-10-17T12:33:07.411Z,1.87
2022-10-17T12:35:36.939Z,2.27
2022-10-17T12:38:14.239Z,1.73
2022-10-17T12:40:48.447Z,1.77
2022-10-17T12:43:15.791Z,1.70
2022-10-17T12:45:49.947Z,1.80
2022-10-17T12:48:54.909Z,1.60
2022-10-17T12:51:35.395Z,1.70
2022-10-17T12:54:15.351Z,1.63
2022-10-17T12:56:49.377Z,1.70
2022-10-17T12:59:27.818Z,1.70
2022-10-17T13:02:03.511Z,1.80
2022-10-17T13:04:31.856Z,2.00
2022-10-17T13:07:01.068Z,1.50
2022-10-17T13:09:35.432Z,1.60
2022-10-17T13:12:06.397Z,1.60
2022-10-17T13:14:34.930Z,1.87
2022-10-17T13:17:04.747Z,1.80
2022-10-17T13:19:39.521Z,1.70
2022-10-17T13:22:17.717Z,1.70
2022-10-17T13:24:45.088Z,2.20
2022-10-17T13:27:33.614Z,1.73
2022-10-17T13:30:18.041Z,1.37
2022-10-17T13:32:45.536Z,2.10
2022-10-17T13:35:15.726Z,1.60
2022-10-17T13:37:45.028Z,1.80
2022-10-17T13:40:49.732Z,1.67
2022-10-17T13:43:18.489Z,1.60
2022-10-17T13:45:54.681Z,1.97
2022-10-17T13:48:27.355Z,1.70
2022-10-17T13:51:02.842Z,1.60
2022-10-17T13:53:40.049Z,1.80
2022-10-17T13:56:28.275Z,1.90
2022-10-17T13:59:03.541Z,1.53
2022-10-17T14:01:31.207Z,1.60
2022-10-17T14:04:20.251Z,2.50
2022-10-17T14:06:49.533Z,1.60
2022-10-17T14:09:21.044Z,1.90
2022-10-17T14:12:23.203Z,2.30
2022-10-17T14:15:10.426Z,1.80
2022-10-17T14:17:38.665Z,1.80
2022-10-17T14:20:40.877Z,2.10
2022-10-17T14:23:20.862Z,1.60
2022-10-17T14:25:42.994Z,1.93
2022-10-17T14:28:13.916Z,1.80
2022-10-17T14:30:56.821Z,1.97
2022-10-17T14:33:32.420Z,2.20
2022-10-17T14:36:02.466Z,1.70
2022-10-17T14:38:30.752Z,1.90
2022-10-17T14:44:06.610Z,2.20
2022-10-17T14:46:35.913Z,2.50
2022-10-17T14:49:18.425Z,2.57
2022-10-17T14:52:25.790Z,1.80
2022-10-17T14:54:53.124Z,2.40
2022-10-17T14:57:26.303Z,2.07
2022-10-17T14:59:57.346Z,2.00
2022-10-17T15:02:29.395Z,2.20
2022-10-17T15:04:56.763Z,2.10
2022-10-17T15:07:24.172Z,2.23
2022-10-17T15:09:52.876Z,2.80
2022-10-17T15:12:25.342Z,2.10
2022-10-17T15:14:53.111Z,2.30
2022-10-17T15:17:24.473Z,2.43
2022-10-17T15:19:51.243Z,2.53
2022-10-17T15:22:18.372Z,2.00
2022-10-17T15:24:46.343Z,2.33
2022-10-17T15:27:21.876Z,2.10
2022-10-17T15:29:49.504Z,2.47
2022-10-17T15:32:16.712Z,2.53
2022-10-17T15:34:44.225Z,2.00
2022-10-17T15:37:21.968Z,1.90
2022-10-17T15:39:54.850Z,2.00
2022-10-17T15:42:29.897Z,2.20
2022-10-17T15:44:57.462Z,2.70
2022-10-17T15:47:33.310Z,2.17
2022-10-17T15:50:01.447Z,2.70
2022-10-17T15:52:28.709Z,2.47
2022-10-17T15:54:57.393Z,2.57
2022-10-17T15:57:29.479Z,2.30
2022-10-17T15:59:58.938Z,2.30
2022-10-17T16:02:25.947Z,2.27
2022-10-17T16:04:53.136Z,2.77
2022-10-17T16:07:21.008Z,2.50
2022-10-17T16:09:47.839Z,2.30
2022-10-17T16:12:26.980Z,2.43
2022-10-17T16:14:53.898Z,2.77
2022-10-17T16:17:20.671Z,2.97
2022-10-17T16:19:47.469Z,2.60
2022-10-17T16:22:26.564Z,3.10
2022-10-17T16:24:58.678Z,3.00
2022-10-17T16:27:26.244Z,2.77
2022-10-17T16:29:53.083Z,2.60
2022-10-17T16:32:19.880Z,2.83
2022-10-17T16:34:46.684Z,2.97
2022-10-17T16:37:13.805Z,2.70
2022-10-17T16:39:40.555Z,3.23
2022-10-17T16:42:07.398Z,2.77
2022-10-17T16:44:34.185Z,3.20
2022-10-17T16:47:01.130Z,3.37
2022-10-17T16:49:28.058Z,3.40
2022-10-17T16:51:54.871Z,3.03
2022-10-17T16:54:21.752Z,3.37
2022-10-17T16:56:50.054Z,3.40
2022-10-17T16:59:16.960Z,3.80
2022-10-17T17:01:43.829Z,3.80
2022-10-17T17:04:10.627Z,3.77
2022-10-17T17:06:37.751Z,4.17
2022-10-17T17:09:04.821Z,4.70
2022-10-17T17:11:32.500Z,3.40
2022-10-17T17:14:01.824Z,4.23
2022-10-17T17:16:30.704Z,3.23
2022-10-17T17:19:01.130Z,3.23
2022-10-17T17:21:28.187Z,3.60
2022-10-17T17:23:58.940Z,4.23
2022-10-17T17:26:28.033Z,4.20
2022-10-17T17:28:56.989Z,4.70
2022-10-17T17:31:26.627Z,4.60
2022-10-17T17:36:25.016Z,4.40
2022-10-17T17:38:55.217Z,4.53
2022-10-17T17:41:22.213Z,4.80
2022-10-17T17:43:49.756Z,5.70
2022-10-17T17:46:19.143Z,5.43
2022-10-17T17:48:47.431Z,5.27
2022-10-17T17:51:17.134Z,5.47
2022-10-17T17:53:44.077Z,5.77
2022-10-17T17:56:17.090Z,5.63
2022-10-17T17:58:46.605Z,5.57
2022-10-17T18:01:18.892Z,5.20
2022-10-17T18:03:46.425Z,5.67
2022-10-17T18:06:14.217Z,5.60
2022-10-17T18:08:45.460Z,6.00
2022-10-17T18:11:12.428Z,5.33
2022-10-17T18:13:39.300Z,5.70
2022-10-17T18:16:13.581Z,5.80
2022-10-17T18:18:42.438Z,6.33
2022-10-17T18:21:10.860Z,6.37
2022-10-17T18:23:41.157Z,6.33
2022-10-17T18:26:08.127Z,5.43
2022-10-17T18:28:38.883Z,5.83
2022-10-17T18:31:15.487Z,5.63
2022-10-17T18:33:44.590Z,4.80
2022-10-17T18:36:14.008Z,5.07
2022-10-17T18:38:41.454Z,4.87
2022-10-17T18:41:13.734Z,5.10
2022-10-17T18:43:42.191Z,6.10
2022-10-17T18:46:18.443Z,5.40
2022-10-17T18:48:46.922Z,4.90
2022-10-17T18:51:15.719Z,6.07
2022-10-17T18:53:44.775Z,6.30
2022-10-17T18:56:13.150Z,5.47
2022-10-17T18:58:40.956Z,6.07
2022-10-17T19:01:15.477Z,5.40
2022-10-17T19:03:43.763Z,5.53
2022-10-17T19:06:12.293Z,5.57
2022-10-17T19:08:39.925Z,6.07
2022-10-17T19:11:07.752Z,4.67
2022-10-17T19:13:35.019Z,5.47
2022-10-17T19:16:09.120Z,5.00
2022-10-17T19:18:36.707Z,4.33
2022-10-17T19:21:05.697Z,4.83
2022-10-17T19:23:35.406Z,4.80
2022-10-17T19:26:11.202Z,5.03
2022-10-17T19:28:42.116Z,5.40
2022-10-17T19:31:09.965Z,6.43
2022-10-17T19:33:38.000Z,9.33
2022-10-17T19:36:11.080Z,8.73
2022-10-17T19:38:37.944Z,9.33
2022-10-17T19:41:09.765Z,8.23
2022-10-17T19:43:41.039Z,8.50
2022-10-17T19:46:16.189Z,9.23
2022-10-17T19:48:43.260Z,11.33
2022-10-17T19:51:16.013Z,13.03
2022-10-17T19:53:43.126Z,11.87
2022-10-17T19:56:10.772Z,10.30
2022-10-17T19:58:44.844Z,9.10
2022-10-17T20:01:14.827Z,12.17
2022-10-17T20:03:41.854Z,8.77
2022-10-17T20:06:09.644Z,8.47
2022-10-17T20:08:38.408Z,6.53
2022-10-17T20:11:12.705Z,6.30
2022-10-17T20:13:40.000Z,5.63
2022-10-17T20:16:08.857Z,6.73
2022-10-17T20:18:35.844Z,5.23
2022-10-17T20:21:05.639Z,6.07
2022-10-17T20:23:32.526Z,5.27
2022-10-17T20:26:08.731Z,5.63
2022-10-17T20:28:48.939Z,6.17
2022-10-17T20:31:16.272Z,5.20
2022-10-17T20:33:43.284Z,6.00
2022-10-17T20:36:11.970Z,5.80
2022-10-17T20:38:39.167Z,5.60
2022-10-17T20:41:08.473Z,5.67
2022-10-17T20:43:36.622Z,5.83
2022-10-17T20:46:15.558Z,6.03
2022-10-17T20:48:55.024Z,4.60
2022-10-17T20:51:22.125Z,5.33
2022-10-17T20:53:49.330Z,5.80
2022-10-17T20:56:22.343Z,6.03
2022-10-17T20:58:57.187Z,6.03
2022-10-17T21:01:25.182Z,5.43
2022-10-17T21:03:52.612Z,4.23
2022-10-17T21:06:20.266Z,4.37
2022-10-17T21:08:48.284Z,4.33
2022-10-17T21:11:21.067Z,4.63
2022-10-17T21:13:53.804Z,5.87
2022-10-17T21:16:20.885Z,5.23
2022-10-17T21:18:49.429Z,5.57
2022-10-17T21:21:17.425Z,5.80
2022-10-17T21:23:46.417Z,5.30
2022-10-17T21:26:14.191Z,5.33
2022-10-17T21:28:42.119Z,5.20
2022-10-17T21:31:14.148Z,5.33
2022-10-17T21:33:42.237Z,5.70
2022-10-17T21:36:10.227Z,5.80
2022-10-17T21:38:38.375Z,5.10
2022-10-17T21:41:06.609Z,4.93
2022-10-17T21:43:34.618Z,5.77
2022-10-17T21:46:03.882Z,5.50
2022-10-17T21:48:31.072Z,5.97
2022-10-17T21:51:03.695Z,4.60
2022-10-17T21:53:31.031Z,4.97
2022-10-17T21:56:06.926Z,5.30
2022-10-17T21:58:34.258Z,4.57
2022-10-17T22:01:05.641Z,4.57
2022-10-17T22:03:34.443Z,4.83
2022-10-17T22:06:12.903Z,4.60
2022-10-17T22:08:49.386Z,4.73
2022-10-17T22:11:20.247Z,4.00
2022-10-17T22:13:47.305Z,4.43
2022-10-17T22:16:16.243Z,4.50
2022-10-17T22:18:43.890Z,4.33
2022-10-17T22:21:16.843Z,4.50
2022-10-17T22:23:45.099Z,4.13
2022-10-17T22:26:12.958Z,4.27
2022-10-17T22:28:41.289Z,4.63
2022-10-17T22:31:08.976Z,4.33
2022-10-17T22:33:37.395Z,4.30
2022-10-17T22:36:05.288Z,3.97
2022-10-17T22:38:32.189Z,4.20
2022-10-17T22:40:58.940Z,3.73
2022-10-17T22:43:25.809Z,3.57
2022-10-17T22:45:57.971Z,5.00
2022-10-17T22:48:25.732Z,4.80
2022-10-17T22:50:53.694Z,5.07
2022-10-17T22:53:25.946Z,5.40
2022-10-17T22:55:53.560Z,5.57
2022-10-17T22:58:21.492Z,4.80
2022-10-17T23:00:49.418Z,4.67
2022-10-17T23:03:17.142Z,4.77
2022-10-17T23:05:44.952Z,5.30
2022-10-17T23:08:12.959Z,4.83
2022-10-17T23:10:40.419Z,5.17
2022-10-17T23:13:07.761Z,4.63
2022-10-17T23:15:34.755Z,5.00
2022-10-17T23:18:02.182Z,4.57
2022-10-17T23:20:29.899Z,5.50
2022-10-17T23:22:57.607Z,4.40
2022-10-17T23:25:24.573Z,4.60
2022-10-17T23:27:51.934Z,4.50
2022-10-17T23:30:19.075Z,5.07
2022-10-17T23:32:45.816Z,4.30
2022-10-17T23:35:12.848Z,4.70
2022-10-17T23:37:39.754Z,4.37
2022-10-17T23:40:07.772Z,3.87
2022-10-17T23:42:34.517Z,3.63
2022-10-17T23:45:01.373Z,3.97
2022-10-17T23:47:28.486Z,3.50
2022-10-17T23:49:55.816Z,3.57
2022-10-17T23:52:22.730Z,3.90
2022-10-17T23:54:49.566Z,4.17
2022-10-17T23:57:16.444Z,3.70
2022-10-17T23:59:43.355Z,4.63
